sensor_id;sensor_type;location;lat;lon;timestamp;P1;durP1;ratioP1;P2;durP2;ratioP2
13981;SDS011;7065;50.880;5.502;2023-10-31T00:01:45;7.03;;;3.42;;
13981;SDS011;7065;50.880;5.502;2023-10-31T00:04:11;6.50;;;4.07;;
13981;SDS011;7065;50.880;5.502;2023-10-31T00:06:37;7.60;;;4.30;;
13981;SDS011;7065;50.880;5.502;2023-10-31T00:09:02;7.30;;;4.50;;
13981;SDS011;7065;50.880;5.502;2023-10-31T00:11:28;5.85;;;4.95;;
13981;SDS011;7065;50.880;5.502;2023-10-31T00:13:54;8.52;;;5.20;;
13981;SDS011;7065;50.880;5.502;2023-10-31T00:16:19;6.03;;;4.72;;
13981;SDS011;7065;50.880;5.502;2023-10-31T00:18:45;8.90;;;5.78;;
13981;SDS011;7065;50.880;5.502;2023-10-31T00:21:11;10.15;;;6.85;;
13981;SDS011;7065;50.880;5.502;2023-10-31T00:23:44;10.65;;;7.20;;
13981;SDS011;7065;50.880;5.502;2023-10-31T00:26:10;11.32;;;7.32;;
13981;SDS011;7065;50.880;5.502;2023-10-31T00:28:36;13.63;;;8.15;;
13981;SDS011;7065;50.880;5.502;2023-10-31T00:31:02;14.05;;;8.88;;
13981;SDS011;7065;50.880;5.502;2023-10-31T00:33:29;16.08;;;9.60;;
13981;SDS011;7065;50.880;5.502;2023-10-31T00:35:54;12.15;;;7.95;;
13981;SDS011;7065;50.880;5.502;2023-10-31T00:38:20;17.52;;;9.85;;
13981;SDS011;7065;50.880;5.502;2023-10-31T00:40:46;14.15;;;8.98;;
13981;SDS011;7065;50.880;5.502;2023-10-31T00:43:12;16.50;;;9.45;;
13981;SDS011;7065;50.880;5.502;2023-10-31T00:45:37;16.70;;;10.02;;
13981;SDS011;7065;50.880;5.502;2023-10-31T00:48:03;18.77;;;10.68;;
13981;SDS011;7065;50.880;5.502;2023-10-31T00:50:29;17.88;;;11.13;;
13981;SDS011;7065;50.880;5.502;2023-10-31T00:52:55;16.40;;;10.93;;
13981;SDS011;7065;50.880;5.502;2023-10-31T00:55:20;19.45;;;12.48;;
13981;SDS011;7065;50.880;5.502;2023-10-31T00:57:46;18.83;;;12.05;;
13981;SDS011;7065;50.880;5.502;2023-10-31T01:00:12;22.48;;;13.57;;
13981;SDS011;7065;50.880;5.502;2023-10-31T01:02:38;19.20;;;12.77;;
13981;SDS011;7065;50.880;5.502;2023-10-31T01:05:03;23.05;;;13.32;;
13981;SDS011;7065;50.880;5.502;2023-10-31T01:07:29;19.05;;;12.90;;
13981;SDS011;7065;50.880;5.502;2023-10-31T01:09:55;18.48;;;12.45;;
13981;SDS011;7065;50.880;5.502;2023-10-31T01:12:20;22.73;;;13.85;;
13981;SDS011;7065;50.880;5.502;2023-10-31T01:14:46;21.08;;;13.48;;
13981;SDS011;7065;50.880;5.502;2023-10-31T01:17:12;20.13;;;13.63;;
13981;SDS011;7065;50.880;5.502;2023-10-31T01:19:38;19.75;;;12.70;;
13981;SDS011;7065;50.880;5.502;2023-10-31T01:22:04;19.83;;;11.57;;
13981;SDS011;7065;50.880;5.502;2023-10-31T01:24:29;18.17;;;12.20;;
13981;SDS011;7065;50.880;5.502;2023-10-31T01:26:55;18.40;;;11.80;;
13981;SDS011;7065;50.880;5.502;2023-10-31T01:29:21;18.05;;;12.75;;
13981;SDS011;7065;50.880;5.502;2023-10-31T01:31:46;17.50;;;12.23;;
13981;SDS011;7065;50.880;5.502;2023-10-31T01:34:12;17.20;;;11.95;;
13981;SDS011;7065;50.880;5.502;2023-10-31T01:36:38;15.43;;;10.27;;
13981;SDS011;7065;50.880;5.502;2023-10-31T01:39:03;13.52;;;10.27;;
13981;SDS011;7065;50.880;5.502;2023-10-31T01:41:30;14.25;;;10.15;;
13981;SDS011;7065;50.880;5.502;2023-10-31T01:43:55;16.40;;;9.18;;
13981;SDS011;7065;50.880;5.502;2023-10-31T01:46:21;12.75;;;9.77;;
13981;SDS011;7065;50.880;5.502;2023-10-31T01:48:47;15.63;;;10.93;;
13981;SDS011;7065;50.880;5.502;2023-10-31T01:51:13;11.13;;;8.52;;
13981;SDS011;7065;50.880;5.502;2023-10-31T01:53:38;12.40;;;9.23;;
13981;SDS011;7065;50.880;5.502;2023-10-31T01:56:05;13.00;;;10.30;;
13981;SDS011;7065;50.880;5.502;2023-10-31T01:58:35;10.35;;;9.13;;
13981;SDS011;7065;50.880;5.502;2023-10-31T02:01:02;13.57;;;9.80;;
13981;SDS011;7065;50.880;5.502;2023-10-31T02:03:29;11.40;;;9.40;;
13981;SDS011;7065;50.880;5.502;2023-10-31T02:05:55;12.10;;;9.93;;
13981;SDS011;7065;50.880;5.502;2023-10-31T02:08:21;11.40;;;9.52;;
13981;SDS011;7065;50.880;5.502;2023-10-31T02:10:47;11.27;;;9.05;;
13981;SDS011;7065;50.880;5.502;2023-10-31T02:13:13;11.30;;;8.90;;
13981;SDS011;7065;50.880;5.502;2023-10-31T02:15:40;11.48;;;8.50;;
13981;SDS011;7065;50.880;5.502;2023-10-31T02:18:06;11.05;;;8.68;;
13981;SDS011;7065;50.880;5.502;2023-10-31T02:20:34;11.18;;;9.32;;
13981;SDS011;7065;50.880;5.502;2023-10-31T02:23:00;11.63;;;9.05;;
13981;SDS011;7065;50.880;5.502;2023-10-31T02:25:26;11.05;;;9.02;;
13981;SDS011;7065;50.880;5.502;2023-10-31T02:27:52;9.98;;;8.60;;
13981;SDS011;7065;50.880;5.502;2023-10-31T02:30:17;11.13;;;8.20;;
13981;SDS011;7065;50.880;5.502;2023-10-31T02:32:43;12.05;;;9.02;;
13981;SDS011;7065;50.880;5.502;2023-10-31T02:35:10;8.65;;;7.53;;
13981;SDS011;7065;50.880;5.502;2023-10-31T02:37:36;11.07;;;7.07;;
13981;SDS011;7065;50.880;5.502;2023-10-31T02:40:02;10.15;;;7.47;;
13981;SDS011;7065;50.880;5.502;2023-10-31T02:42:28;10.35;;;7.43;;
13981;SDS011;7065;50.880;5.502;2023-10-31T02:44:54;8.52;;;7.22;;
13981;SDS011;7065;50.880;5.502;2023-10-31T02:47:19;8.20;;;7.40;;
13981;SDS011;7065;50.880;5.502;2023-10-31T02:49:45;8.75;;;7.10;;
13981;SDS011;7065;50.880;5.502;2023-10-31T02:52:11;7.73;;;7.00;;
13981;SDS011;7065;50.880;5.502;2023-10-31T02:54:37;9.15;;;6.72;;
13981;SDS011;7065;50.880;5.502;2023-10-31T02:57:03;7.68;;;6.97;;
13981;SDS011;7065;50.880;5.502;2023-10-31T02:59:29;8.82;;;6.85;;
13981;SDS011;7065;50.880;5.502;2023-10-31T03:01:56;6.93;;;6.15;;
13981;SDS011;7065;50.880;5.502;2023-10-31T03:04:22;6.72;;;6.07;;
13981;SDS011;7065;50.880;5.502;2023-10-31T03:06:48;7.10;;;6.40;;
13981;SDS011;7065;50.880;5.502;2023-10-31T03:09:15;6.43;;;5.80;;
13981;SDS011;7065;50.880;5.502;2023-10-31T03:11:41;5.68;;;5.18;;
13981;SDS011;7065;50.880;5.502;2023-10-31T03:14:06;6.15;;;5.45;;
13981;SDS011;7065;50.880;5.502;2023-10-31T03:16:32;6.20;;;5.60;;
13981;SDS011;7065;50.880;5.502;2023-10-31T03:18:58;6.45;;;5.72;;
13981;SDS011;7065;50.880;5.502;2023-10-31T03:21:24;6.10;;;5.50;;
13981;SDS011;7065;50.880;5.502;2023-10-31T03:23:50;6.82;;;5.80;;
13981;SDS011;7065;50.880;5.502;2023-10-31T03:26:18;6.88;;;5.65;;
13981;SDS011;7065;50.880;5.502;2023-10-31T03:28:44;5.95;;;5.03;;
13981;SDS011;7065;50.880;5.502;2023-10-31T03:31:10;7.28;;;6.10;;
13981;SDS011;7065;50.880;5.502;2023-10-31T03:33:39;6.57;;;6.03;;
13981;SDS011;7065;50.880;5.502;2023-10-31T03:36:05;7.50;;;5.63;;
13981;SDS011;7065;50.880;5.502;2023-10-31T03:38:32;6.30;;;5.70;;
13981;SDS011;7065;50.880;5.502;2023-10-31T03:40:58;7.05;;;6.35;;
13981;SDS011;7065;50.880;5.502;2023-10-31T03:43:25;6.90;;;5.53;;
13981;SDS011;7065;50.880;5.502;2023-10-31T03:45:51;6.78;;;6.07;;
13981;SDS011;7065;50.880;5.502;2023-10-31T03:48:18;6.75;;;5.60;;
13981;SDS011;7065;50.880;5.502;2023-10-31T03:50:44;6.18;;;5.57;;
13981;SDS011;7065;50.880;5.502;2023-10-31T03:53:09;7.57;;;6.00;;
13981;SDS011;7065;50.880;5.502;2023-10-31T03:55:35;7.30;;;6.65;;
13981;SDS011;7065;50.880;5.502;2023-10-31T03:58:01;7.13;;;6.40;;
13981;SDS011;7065;50.880;5.502;2023-10-31T04:00:26;6.32;;;5.70;;
13981;SDS011;7065;50.880;5.502;2023-10-31T04:02:52;6.43;;;5.82;;
13981;SDS011;7065;50.880;5.502;2023-10-31T04:05:18;6.05;;;5.45;;
13981;SDS011;7065;50.880;5.502;2023-10-31T04:07:44;5.80;;;5.20;;
13981;SDS011;7065;50.880;5.502;2023-10-31T04:10:12;5.50;;;5.05;;
13981;SDS011;7065;50.880;5.502;2023-10-31T04:12:38;5.65;;;5.15;;
13981;SDS011;7065;50.880;5.502;2023-10-31T04:15:04;5.82;;;5.13;;
13981;SDS011;7065;50.880;5.502;2023-10-31T04:17:30;5.82;;;5.28;;
13981;SDS011;7065;50.880;5.502;2023-10-31T04:19:56;6.47;;;5.80;;
13981;SDS011;7065;50.880;5.502;2023-10-31T04:22:23;6.80;;;5.72;;
13981;SDS011;7065;50.880;5.502;2023-10-31T04:24:48;6.60;;;5.97;;
13981;SDS011;7065;50.880;5.502;2023-10-31T04:27:14;6.88;;;5.80;;
13981;SDS011;7065;50.880;5.502;2023-10-31T04:29:39;5.75;;;5.25;;
13981;SDS011;7065;50.880;5.502;2023-10-31T04:32:05;7.10;;;6.38;;
13981;SDS011;7065;50.880;5.502;2023-10-31T04:34:31;6.63;;;6.10;;
13981;SDS011;7065;50.880;5.502;2023-10-31T04:36:57;6.35;;;5.85;;
13981;SDS011;7065;50.880;5.502;2023-10-31T04:39:23;6.85;;;6.25;;
13981;SDS011;7065;50.880;5.502;2023-10-31T04:41:49;6.22;;;5.72;;
13981;SDS011;7065;50.880;5.502;2023-10-31T04:44:14;6.25;;;5.65;;
13981;SDS011;7065;50.880;5.502;2023-10-31T04:46:41;7.57;;;6.93;;
13981;SDS011;7065;50.880;5.502;2023-10-31T04:49:07;6.93;;;6.28;;
13981;SDS011;7065;50.880;5.502;2023-10-31T04:51:34;7.78;;;6.97;;
13981;SDS011;7065;50.880;5.502;2023-10-31T04:54:03;8.13;;;7.32;;
13981;SDS011;7065;50.880;5.502;2023-10-31T04:56:29;7.43;;;6.72;;
13981;SDS011;7065;50.880;5.502;2023-10-31T04:58:54;8.77;;;7.97;;
13981;SDS011;7065;50.880;5.502;2023-10-31T05:01:21;8.52;;;7.65;;
13981;SDS011;7065;50.880;5.502;2023-10-31T05:03:46;8.43;;;7.63;;
13981;SDS011;7065;50.880;5.502;2023-10-31T05:06:12;8.13;;;7.38;;
13981;SDS011;7065;50.880;5.502;2023-10-31T05:08:38;8.10;;;7.30;;
13981;SDS011;7065;50.880;5.502;2023-10-31T05:11:04;7.00;;;6.40;;
13981;SDS011;7065;50.880;5.502;2023-10-31T05:13:29;7.07;;;6.38;;
13981;SDS011;7065;50.880;5.502;2023-10-31T05:15:55;7.38;;;6.68;;
13981;SDS011;7065;50.880;5.502;2023-10-31T05:18:21;8.63;;;7.82;;
13981;SDS011;7065;50.880;5.502;2023-10-31T05:20:47;8.50;;;7.70;;
13981;SDS011;7065;50.880;5.502;2023-10-31T05:23:13;8.85;;;7.57;;
13981;SDS011;7065;50.880;5.502;2023-10-31T05:25:39;10.02;;;8.75;;
13981;SDS011;7065;50.880;5.502;2023-10-31T05:28:04;10.73;;;9.73;;
13981;SDS011;7065;50.880;5.502;2023-10-31T05:30:30;10.48;;;9.57;;
13981;SDS011;7065;50.880;5.502;2023-10-31T05:32:56;11.32;;;10.25;;
13981;SDS011;7065;50.880;5.502;2023-10-31T05:35:22;11.73;;;10.60;;
13981;SDS011;7065;50.880;5.502;2023-10-31T05:37:48;11.02;;;9.50;;
13981;SDS011;7065;50.880;5.502;2023-10-31T05:40:14;9.80;;;8.88;;
13981;SDS011;7065;50.880;5.502;2023-10-31T05:42:41;10.70;;;9.70;;
13981;SDS011;7065;50.880;5.502;2023-10-31T05:45:07;9.38;;;8.45;;
13981;SDS011;7065;50.880;5.502;2023-10-31T05:47:33;9.45;;;8.45;;
13981;SDS011;7065;50.880;5.502;2023-10-31T05:49:59;9.23;;;8.43;;
13981;SDS011;7065;50.880;5.502;2023-10-31T05:52:28;10.52;;;9.45;;
13981;SDS011;7065;50.880;5.502;2023-10-31T05:54:54;10.35;;;9.35;;
13981;SDS011;7065;50.880;5.502;2023-10-31T05:57:20;9.85;;;8.85;;
13981;SDS011;7065;50.880;5.502;2023-10-31T05:59:46;10.20;;;9.20;;
13981;SDS011;7065;50.880;5.502;2023-10-31T06:02:13;11.07;;;9.98;;
13981;SDS011;7065;50.880;5.502;2023-10-31T06:04:39;11.25;;;10.07;;
13981;SDS011;7065;50.880;5.502;2023-10-31T06:07:05;10.82;;;9.82;;
13981;SDS011;7065;50.880;5.502;2023-10-31T06:09:31;11.63;;;10.52;;
13981;SDS011;7065;50.880;5.502;2023-10-31T06:11:58;11.05;;;10.05;;
13981;SDS011;7065;50.880;5.502;2023-10-31T06:14:24;11.65;;;10.55;;
13981;SDS011;7065;50.880;5.502;2023-10-31T06:16:50;12.30;;;11.07;;
13981;SDS011;7065;50.880;5.502;2023-10-31T06:19:16;12.27;;;11.07;;
13981;SDS011;7065;50.880;5.502;2023-10-31T06:21:43;12.13;;;10.93;;
13981;SDS011;7065;50.880;5.502;2023-10-31T06:24:08;11.73;;;10.52;;
13981;SDS011;7065;50.880;5.502;2023-10-31T06:26:35;12.48;;;11.27;;
13981;SDS011;7065;50.880;5.502;2023-10-31T06:29:00;12.65;;;11.30;;
13981;SDS011;7065;50.880;5.502;2023-10-31T06:31:26;13.30;;;12.10;;
13981;SDS011;7065;50.880;5.502;2023-10-31T06:33:52;12.27;;;10.98;;
13981;SDS011;7065;50.880;5.502;2023-10-31T06:36:18;13.18;;;11.80;;
13981;SDS011;7065;50.880;5.502;2023-10-31T06:38:43;12.43;;;10.95;;
13981;SDS011;7065;50.880;5.502;2023-10-31T06:41:09;12.70;;;11.43;;
13981;SDS011;7065;50.880;5.502;2023-10-31T06:43:35;13.25;;;10.77;;
13981;SDS011;7065;50.880;5.502;2023-10-31T06:46:00;13.82;;;11.40;;
13981;SDS011;7065;50.880;5.502;2023-10-31T06:48:29;11.88;;;10.68;;
13981;SDS011;7065;50.880;5.502;2023-10-31T06:50:54;13.13;;;11.70;;
13981;SDS011;7065;50.880;5.502;2023-10-31T06:53:20;12.98;;;11.30;;
13981;SDS011;7065;50.880;5.502;2023-10-31T06:55:46;11.85;;;10.70;;
13981;SDS011;7065;50.880;5.502;2023-10-31T06:58:12;13.02;;;11.65;;
13981;SDS011;7065;50.880;5.502;2023-10-31T07:00:38;12.52;;;10.82;;
13981;SDS011;7065;50.880;5.502;2023-10-31T07:03:04;11.75;;;10.55;;
13981;SDS011;7065;50.880;5.502;2023-10-31T07:05:31;11.32;;;10.20;;
13981;SDS011;7065;50.880;5.502;2023-10-31T07:07:57;12.35;;;11.15;;
13981;SDS011;7065;50.880;5.502;2023-10-31T07:10:22;12.38;;;10.93;;
13981;SDS011;7065;50.880;5.502;2023-10-31T07:12:48;12.02;;;10.75;;
13981;SDS011;7065;50.880;5.502;2023-10-31T07:15:14;11.18;;;10.07;;
13981;SDS011;7065;50.880;5.502;2023-10-31T07:17:39;11.77;;;10.57;;
13981;SDS011;7065;50.880;5.502;2023-10-31T07:20:05;11.23;;;10.07;;
13981;SDS011;7065;50.880;5.502;2023-10-31T07:22:32;11.25;;;10.15;;
13981;SDS011;7065;50.880;5.502;2023-10-31T07:24:59;9.98;;;8.98;;
13981;SDS011;7065;50.880;5.502;2023-10-31T07:27:27;10.48;;;9.48;;
13981;SDS011;7065;50.880;5.502;2023-10-31T07:29:53;10.02;;;9.05;;
13981;SDS011;7065;50.880;5.502;2023-10-31T07:32:19;9.88;;;8.93;;
13981;SDS011;7065;50.880;5.502;2023-10-31T07:34:44;9.73;;;8.82;;
13981;SDS011;7065;50.880;5.502;2023-10-31T07:37:10;9.85;;;8.10;;
13981;SDS011;7065;50.880;5.502;2023-10-31T07:39:36;8.85;;;8.05;;
13981;SDS011;7065;50.880;5.502;2023-10-31T07:42:02;9.65;;;8.55;;
13981;SDS011;7065;50.880;5.502;2023-10-31T07:44:28;9.27;;;7.78;;
13981;SDS011;7065;50.880;5.502;2023-10-31T07:46:53;8.38;;;7.57;;
13981;SDS011;7065;50.880;5.502;2023-10-31T07:49:19;8.82;;;7.90;;
13981;SDS011;7065;50.880;5.502;2023-10-31T07:51:45;8.48;;;7.68;;
13981;SDS011;7065;50.880;5.502;2023-10-31T07:54:13;9.07;;;7.60;;
13981;SDS011;7065;50.880;5.502;2023-10-31T07:56:39;9.40;;;7.88;;
13981;SDS011;7065;50.880;5.502;2023-10-31T07:59:05;7.78;;;7.00;;
13981;SDS011;7065;50.880;5.502;2023-10-31T08:01:33;8.73;;;6.82;;
13981;SDS011;7065;50.880;5.502;2023-10-31T08:03:59;8.30;;;6.45;;
13981;SDS011;7065;50.880;5.502;2023-10-31T08:06:24;8.88;;;6.95;;
13981;SDS011;7065;50.880;5.502;2023-10-31T08:08:50;9.15;;;6.65;;
13981;SDS011;7065;50.880;5.502;2023-10-31T08:11:16;6.90;;;6.20;;
13981;SDS011;7065;50.880;5.502;2023-10-31T08:13:41;8.70;;;5.78;;
13981;SDS011;7065;50.880;5.502;2023-10-31T08:16:07;6.53;;;5.38;;
13981;SDS011;7065;50.880;5.502;2023-10-31T08:18:33;8.30;;;5.43;;
13981;SDS011;7065;50.880;5.502;2023-10-31T08:21:00;5.18;;;4.53;;
13981;SDS011;7065;50.880;5.502;2023-10-31T08:23:25;5.65;;;5.05;;
13981;SDS011;7065;50.880;5.502;2023-10-31T08:25:54;6.35;;;4.90;;
13981;SDS011;7065;50.880;5.502;2023-10-31T08:28:20;5.38;;;4.80;;
13981;SDS011;7065;50.880;5.502;2023-10-31T08:30:46;6.07;;;4.65;;
13981;SDS011;7065;50.880;5.502;2023-10-31T08:33:12;5.80;;;4.05;;
13981;SDS011;7065;50.880;5.502;2023-10-31T08:35:38;4.65;;;3.90;;
13981;SDS011;7065;50.880;5.502;2023-10-31T08:38:03;4.55;;;3.83;;
13981;SDS011;7065;50.880;5.502;2023-10-31T08:40:29;6.88;;;3.35;;
13981;SDS011;7065;50.880;5.502;2023-10-31T08:42:55;6.03;;;3.63;;
13981;SDS011;7065;50.880;5.502;2023-10-31T08:45:20;3.42;;;3.13;;
13981;SDS011;7065;50.880;5.502;2023-10-31T08:47:46;4.10;;;3.20;;
13981;SDS011;7065;50.880;5.502;2023-10-31T08:50:12;3.25;;;2.90;;
13981;SDS011;7065;50.880;5.502;2023-10-31T08:52:39;4.57;;;3.38;;
13981;SDS011;7065;50.880;5.502;2023-10-31T08:55:05;4.82;;;3.60;;
13981;SDS011;7065;50.880;5.502;2023-10-31T08:57:31;3.33;;;3.05;;
13981;SDS011;7065;50.880;5.502;2023-10-31T08:59:59;3.90;;;3.60;;
13981;SDS011;7065;50.880;5.502;2023-10-31T09:02:25;4.20;;;3.78;;
13981;SDS011;7065;50.880;5.502;2023-10-31T09:04:51;4.68;;;3.78;;
13981;SDS011;7065;50.880;5.502;2023-10-31T09:07:17;6.03;;;4.43;;
13981;SDS011;7065;50.880;5.502;2023-10-31T09:09:43;3.97;;;3.65;;
13981;SDS011;7065;50.880;5.502;2023-10-31T09:12:08;4.82;;;4.05;;
13981;SDS011;7065;50.880;5.502;2023-10-31T09:14:34;4.07;;;3.67;;
13981;SDS011;7065;50.880;5.502;2023-10-31T09:17:00;4.80;;;3.35;;
13981;SDS011;7065;50.880;5.502;2023-10-31T09:19:26;6.57;;;3.60;;
13981;SDS011;7065;50.880;5.502;2023-10-31T09:21:52;3.35;;;3.05;;
13981;SDS011;7065;50.880;5.502;2023-10-31T09:24:18;4.55;;;3.10;;
13981;SDS011;7065;50.880;5.502;2023-10-31T09:26:44;3.60;;;3.00;;
13981;SDS011;7065;50.880;5.502;2023-10-31T09:29:12;3.00;;;2.78;;
13981;SDS011;7065;50.880;5.502;2023-10-31T09:31:38;6.53;;;3.00;;
13981;SDS011;7065;50.880;5.502;2023-10-31T09:34:04;3.95;;;2.65;;
13981;SDS011;7065;50.880;5.502;2023-10-31T09:36:33;3.25;;;2.90;;
13981;SDS011;7065;50.880;5.502;2023-10-31T09:39:02;3.15;;;2.85;;
13981;SDS011;7065;50.880;5.502;2023-10-31T09:41:29;3.72;;;2.83;;
13981;SDS011;7065;50.880;5.502;2023-10-31T09:43:57;4.90;;;2.47;;
13981;SDS011;7065;50.880;5.502;2023-10-31T09:46:23;2.42;;;2.22;;
13981;SDS011;7065;50.880;5.502;2023-10-31T09:48:49;4.22;;;2.72;;
13981;SDS011;7065;50.880;5.502;2023-10-31T09:51:15;2.72;;;2.40;;
13981;SDS011;7065;50.880;5.502;2023-10-31T09:53:41;5.25;;;2.80;;
13981;SDS011;7065;50.880;5.502;2023-10-31T09:56:09;6.55;;;3.33;;
13981;SDS011;7065;50.880;5.502;2023-10-31T09:58:35;4.47;;;2.67;;
13981;SDS011;7065;50.880;5.502;2023-10-31T10:01:01;4.40;;;3.00;;
13981;SDS011;7065;50.880;5.502;2023-10-31T10:03:28;3.47;;;3.17;;
13981;SDS011;7065;50.880;5.502;2023-10-31T10:05:55;3.80;;;3.10;;
13981;SDS011;7065;50.880;5.502;2023-10-31T10:08:20;3.10;;;2.80;;
13981;SDS011;7065;50.880;5.502;2023-10-31T10:10:47;6.10;;;3.30;;
13981;SDS011;7065;50.880;5.502;2023-10-31T10:13:16;3.40;;;2.72;;
13981;SDS011;7065;50.880;5.502;2023-10-31T10:15:46;3.45;;;3.15;;
13981;SDS011;7065;50.880;5.502;2023-10-31T10:18:29;4.82;;;3.00;;
13981;SDS011;7065;50.880;5.502;2023-10-31T10:21:01;4.30;;;2.83;;
13981;SDS011;7065;50.880;5.502;2023-10-31T10:23:28;5.35;;;2.90;;
13981;SDS011;7065;50.880;5.502;2023-10-31T10:25:55;3.45;;;2.75;;
13981;SDS011;7065;50.880;5.502;2023-10-31T10:28:22;3.25;;;2.40;;
13981;SDS011;7065;50.880;5.502;2023-10-31T10:30:50;3.80;;;2.88;;
13981;SDS011;7065;50.880;5.502;2023-10-31T10:33:16;4.88;;;3.95;;
13981;SDS011;7065;50.880;5.502;2023-10-31T10:35:42;4.22;;;3.85;;
13981;SDS011;7065;50.880;5.502;2023-10-31T10:38:12;5.03;;;4.18;;
13981;SDS011;7065;50.880;5.502;2023-10-31T10:40:40;4.63;;;3.58;;
13981;SDS011;7065;50.880;5.502;2023-10-31T10:43:17;5.82;;;3.80;;
13981;SDS011;7065;50.880;5.502;2023-10-31T10:48:17;5.85;;;4.10;;
13981;SDS011;7065;50.880;5.502;2023-10-31T10:50:45;8.05;;;4.85;;
13981;SDS011;7065;50.880;5.502;2023-10-31T10:53:34;7.13;;;4.90;;
13981;SDS011;7065;50.880;5.502;2023-10-31T10:56:09;6.03;;;4.65;;
13981;SDS011;7065;50.880;5.502;2023-10-31T11:01:32;4.18;;;3.47;;
13981;SDS011;7065;50.880;5.502;2023-10-31T11:04:00;5.15;;;3.80;;
13981;SDS011;7065;50.880;5.502;2023-10-31T11:06:25;3.90;;;3.58;;
13981;SDS011;7065;50.880;5.502;2023-10-31T11:08:52;4.78;;;3.40;;
13981;SDS011;7065;50.880;5.502;2023-10-31T11:11:20;5.93;;;2.92;;
13981;SDS011;7065;50.880;5.502;2023-10-31T11:13:48;4.38;;;2.53;;
13981;SDS011;7065;50.880;5.502;2023-10-31T11:19:00;3.17;;;2.10;;
13981;SDS011;7065;50.880;5.502;2023-10-31T11:21:29;4.47;;;2.45;;
13981;SDS011;7065;50.880;5.502;2023-10-31T11:23:59;4.47;;;2.10;;
13981;SDS011;7065;50.880;5.502;2023-10-31T11:26:26;3.88;;;2.17;;
13981;SDS011;7065;50.880;5.502;2023-10-31T11:28:52;4.07;;;2.17;;
13981;SDS011;7065;50.880;5.502;2023-10-31T11:31:27;3.38;;;1.98;;
13981;SDS011;7065;50.880;5.502;2023-10-31T11:33:53;3.83;;;1.83;;
13981;SDS011;7065;50.880;5.502;2023-10-31T11:36:19;3.38;;;1.55;;
13981;SDS011;7065;50.880;5.502;2023-10-31T11:38:45;3.83;;;1.50;;
13981;SDS011;7065;50.880;5.502;2023-10-31T11:41:12;6.50;;;2.28;;
13981;SDS011;7065;50.880;5.502;2023-10-31T11:46:17;6.20;;;1.98;;
13981;SDS011;7065;50.880;5.502;2023-10-31T11:48:54;4.60;;;1.88;;
13981;SDS011;7065;50.880;5.502;2023-10-31T11:51:25;5.93;;;1.77;;
13981;SDS011;7065;50.880;5.502;2023-10-31T11:53:51;5.03;;;1.67;;
13981;SDS011;7065;50.880;5.502;2023-10-31T11:56:17;6.53;;;1.95;;
13981;SDS011;7065;50.880;5.502;2023-10-31T11:58:44;3.70;;;1.80;;
13981;SDS011;7065;50.880;5.502;2023-10-31T12:01:19;4.35;;;1.83;;
13981;SDS011;7065;50.880;5.502;2023-10-31T12:03:45;3.00;;;1.70;;
13981;SDS011;7065;50.880;5.502;2023-10-31T12:06:12;5.88;;;1.63;;
13981;SDS011;7065;50.880;5.502;2023-10-31T12:08:40;5.80;;;1.65;;
13981;SDS011;7065;50.880;5.502;2023-10-31T12:13:33;6.00;;;2.13;;
13981;SDS011;7065;50.880;5.502;2023-10-31T12:16:00;3.88;;;1.90;;
13981;SDS011;7065;50.880;5.502;2023-10-31T12:18:29;5.85;;;2.38;;
13981;SDS011;7065;50.880;5.502;2023-10-31T12:20:56;6.55;;;2.03;;
13981;SDS011;7065;50.880;5.502;2023-10-31T12:23:22;5.65;;;1.80;;
13981;SDS011;7065;50.880;5.502;2023-10-31T12:25:48;7.05;;;2.00;;
13981;SDS011;7065;50.880;5.502;2023-10-31T12:28:18;5.90;;;1.85;;
13981;SDS011;7065;50.880;5.502;2023-10-31T12:30:48;7.40;;;1.92;;
13981;SDS011;7065;50.880;5.502;2023-10-31T12:33:15;4.55;;;2.05;;
13981;SDS011;7065;50.880;5.502;2023-10-31T12:35:41;5.72;;;1.95;;
13981;SDS011;7065;50.880;5.502;2023-10-31T12:38:11;4.00;;;1.67;;
13981;SDS011;7065;50.880;5.502;2023-10-31T12:40:37;6.30;;;1.70;;
13981;SDS011;7065;50.880;5.502;2023-10-31T12:43:05;7.20;;;1.95;;
13981;SDS011;7065;50.880;5.502;2023-10-31T12:45:31;3.58;;;1.67;;
13981;SDS011;7065;50.880;5.502;2023-10-31T12:48:00;4.38;;;1.70;;
13981;SDS011;7065;50.880;5.502;2023-10-31T12:50:30;5.15;;;1.60;;
13981;SDS011;7065;50.880;5.502;2023-10-31T12:52:56;3.55;;;1.75;;
13981;SDS011;7065;50.880;5.502;2023-10-31T12:55:24;4.47;;;1.67;;
13981;SDS011;7065;50.880;5.502;2023-10-31T12:57:53;5.53;;;1.50;;
13981;SDS011;7065;50.880;5.502;2023-10-31T13:00:19;5.35;;;1.65;;
13981;SDS011;7065;50.880;5.502;2023-10-31T13:02:58;4.00;;;1.83;;
13981;SDS011;7065;50.880;5.502;2023-10-31T13:05:27;7.38;;;2.20;;
13981;SDS011;7065;50.880;5.502;2023-10-31T13:07:54;4.53;;;1.88;;
13981;SDS011;7065;50.880;5.502;2023-10-31T13:10:22;3.58;;;1.50;;
13981;SDS011;7065;50.880;5.502;2023-10-31T13:12:49;5.05;;;1.67;;
13981;SDS011;7065;50.880;5.502;2023-10-31T13:15:16;3.47;;;1.75;;
13981;SDS011;7065;50.880;5.502;2023-10-31T13:17:49;3.60;;;1.98;;
13981;SDS011;7065;50.880;5.502;2023-10-31T13:20:17;3.75;;;1.40;;
13981;SDS011;7065;50.880;5.502;2023-10-31T13:22:45;3.47;;;1.42;;
13981;SDS011;7065;50.880;5.502;2023-10-31T13:25:13;4.38;;;2.17;;
13981;SDS011;7065;50.880;5.502;2023-10-31T13:27:40;4.47;;;1.80;;
13981;SDS011;7065;50.880;5.502;2023-10-31T13:30:12;2.30;;;1.83;;
13981;SDS011;7065;50.880;5.502;2023-10-31T13:32:39;4.07;;;1.60;;
13981;SDS011;7065;50.880;5.502;2023-10-31T13:35:06;4.18;;;2.10;;
13981;SDS011;7065;50.880;5.502;2023-10-31T13:37:34;4.38;;;2.17;;
13981;SDS011;7065;50.880;5.502;2023-10-31T13:40:00;4.05;;;1.88;;
13981;SDS011;7065;50.880;5.502;2023-10-31T13:42:26;4.75;;;2.33;;
13981;SDS011;7065;50.880;5.502;2023-10-31T13:44:53;3.25;;;2.03;;
13981;SDS011;7065;50.880;5.502;2023-10-31T13:47:19;2.10;;;1.90;;
13981;SDS011;7065;50.880;5.502;2023-10-31T13:49:44;4.38;;;2.17;;
13981;SDS011;7065;50.880;5.502;2023-10-31T13:52:10;2.38;;;1.90;;
13981;SDS011;7065;50.880;5.502;2023-10-31T13:54:36;2.40;;;1.67;;
13981;SDS011;7065;50.880;5.502;2023-10-31T13:57:02;2.40;;;1.83;;
13981;SDS011;7065;50.880;5.502;2023-10-31T13:59:28;2.53;;;1.48;;
13981;SDS011;7065;50.880;5.502;2023-10-31T14:01:54;3.50;;;1.83;;
13981;SDS011;7065;50.880;5.502;2023-10-31T14:04:19;3.50;;;1.63;;
13981;SDS011;7065;50.880;5.502;2023-10-31T14:06:45;4.75;;;1.70;;
13981;SDS011;7065;50.880;5.502;2023-10-31T14:09:12;3.17;;;1.50;;
13981;SDS011;7065;50.880;5.502;2023-10-31T14:11:38;2.65;;;1.63;;
13981;SDS011;7065;50.880;5.502;2023-10-31T14:14:05;3.55;;;1.40;;
13981;SDS011;7065;50.880;5.502;2023-10-31T14:16:35;2.97;;;1.50;;
13981;SDS011;7065;50.880;5.502;2023-10-31T14:19:10;2.40;;;1.60;;
13981;SDS011;7065;50.880;5.502;2023-10-31T14:21:38;4.05;;;1.75;;
13981;SDS011;7065;50.880;5.502;2023-10-31T14:24:04;3.25;;;1.80;;
13981;SDS011;7065;50.880;5.502;2023-10-31T14:26:31;3.33;;;1.90;;
13981;SDS011;7065;50.880;5.502;2023-10-31T14:28:59;2.45;;;1.63;;
13981;SDS011;7065;50.880;5.502;2023-10-31T14:31:25;2.10;;;1.70;;
13981;SDS011;7065;50.880;5.502;2023-10-31T14:33:51;2.38;;;1.80;;
13981;SDS011;7065;50.880;5.502;2023-10-31T14:36:16;5.28;;;2.15;;
13981;SDS011;7065;50.880;5.502;2023-10-31T14:38:42;2.88;;;2.33;;
13981;SDS011;7065;50.880;5.502;2023-10-31T14:41:08;3.88;;;2.45;;
13981;SDS011;7065;50.880;5.502;2023-10-31T14:43:34;5.60;;;2.40;;
13981;SDS011;7065;50.880;5.502;2023-10-31T14:46:00;3.95;;;2.67;;
13981;SDS011;7065;50.880;5.502;2023-10-31T14:48:27;4.25;;;2.10;;
13981;SDS011;7065;50.880;5.502;2023-10-31T14:50:53;2.00;;;1.80;;
13981;SDS011;7065;50.880;5.502;2023-10-31T14:53:18;3.88;;;1.85;;
13981;SDS011;7065;50.880;5.502;2023-10-31T14:55:45;3.35;;;1.60;;
13981;SDS011;7065;50.880;5.502;2023-10-31T14:58:11;3.40;;;1.80;;
13981;SDS011;7065;50.880;5.502;2023-10-31T15:00:37;2.78;;;1.98;;
13981;SDS011;7065;50.880;5.502;2023-10-31T15:03:03;2.85;;;1.60;;
13981;SDS011;7065;50.880;5.502;2023-10-31T15:05:29;3.13;;;1.55;;